Airfield :
LOGIN :

Register | Disclaimer

   EN    FR    IT 

 










Legend :    VFR   Marginal VFR   IFR   Intensive IFR   Very Intensive IFR
Visi :
Ceiling :
>= 8 km
>= 3000ft
5 to 8 km
1000 to 3000 ft
1500m to 5 km
500 to 1000 ft
800 to 1500m
200 to 500 ft
< 800m
< 200 ft
Symbols :   Thunderstorms  Fog  Heavy snow  Heavy precipitations  Wind > 20 kt
SIGMETs :     Misc.  Thunderstorms  Icing  Turbulence  Mountain Waves  Volcanic Ashes







- Airport Elevation : 353 ft
- IATA code : ZAG


LDZA - Zagreb Pleso

CURRENT METAR :
  • 181500Z VRB03KT CAVOK 28/10 Q1019 NOSIG

EXPIRED METARs :
  • 181430Z 13005KT 070V210 CAVOK 28/11 Q1019 NOSIG
  • 181400Z VRB03KT CAVOK 28/11 Q1019 NOSIG
  • 181330Z VRB02KT CAVOK 28/12 Q1019 NOSIG
  • 181300Z 12006KT 030V190 CAVOK 28/11 Q1020 NOSIG
  • 181230Z VRB05KT CAVOK 28/11 Q1020 NOSIG
  • 181200Z VRB04KT CAVOK 27/12 Q1020 NOSIG

TAF TAF LDZA
Valid from the 18 at 12:00 until the 19 at 12:00 UTC


181125Z 1812/1912 VRB02KT CAVOK TX28/1813Z TN11/1904Z
PROB30 1902/1905 4000 MIFG BR
ATIS : +385 1 6-259-214
No reported NOTAMs for that airfield.



MET'MAP, your aeronautical weather chart ! - Copyright ORBIFLY December 2007 - Disclaimer

ORBIFLY MET'MAP TEAM :

Programming & Development : Alexandra Zaïnal
Concept & Development : Baudouin d'Aumeries
Co-Development & Prog : Marc-Olivier Méhu
Technical & hardware support : Manuel Goepfert

Contact : metmap@orbifly.com




SOURCES & CREDITS :

   NOAA